Twin Springs, Nevada Weather observations

Data are for observation ending at time listed.
 Day   Time    Ave.   Ave.  Ave.  Vector   Max.   Stn.    Total    Solar   Ave.  
  of    of     Air    Rel.  Wind   Wind    Wind   Baro.  Precip.   Rad.    Soil  
Year   Day     Temp.  Hum.  Speed  Dir.    Gust   Pres.                    Temp. 
2014   (PST)    F      %     mph   deg.    mph     mb.     in.     W/m2     F   
------------------------------------------------------------------------------
 326    0:00   36.3    50    2.5    35      6.3    844     0.00       0    45.5
 326    1:00   39.2    45    4.6    35      6.9    844     0.00       0    44.7
 326    2:00   35.7    52    3.2    50      6.5    844     0.00       0    44.1
 326    3:00   35.6    52    4.1   344      6.9    845     0.00       0    43.5
 326    4:00   31.4    59    2.3   331      6.9    844     0.00       0    43.0
 326    5:00   31.1    60    1.8    64      5.3    844     0.00       0    42.4
 326    6:00   25.7    66    4.2   325      8.5    844     0.00       0    41.9
 326    7:00   28.0    63    2.3     3      7.5    844     0.00      14    41.3
 326    8:00   30.4    59    3.7   320      7.2    844     0.00     109    40.7
 326    9:00   37.0    49    4.1   313      8.7    844     0.00     219    40.4
 326   10:00   51.9    31    1.5   186      5.0    843     0.00     476    40.7
 326   11:00   53.9    28    2.6   142      6.5    842     0.00     422    41.9
 326   12:00   59.0    24    4.1   291     15.9    841     0.00     511    43.8
 326   13:00   61.3    22    9.8   268     19.6    840     0.00     373    46.2
 326   14:00   61.2    23   12.4   281     23.7    839     0.00     286    48.3
 326   15:00   63.4    24   11.3   267     22.3    838     0.00     319    49.5
 326   16:00   62.3    26   11.7   277     21.4    838     0.00     144    50.3
 326   17:00   58.6    26   10.8   276     26.9    839     0.00      10    50.6
 326   18:00   56.9    18   17.4   284     32.2    839     0.00       0    50.5
 326   19:00   54.1    23   12.1   279     24.7    840     0.00       0    50.2
 326   20:00   51.0    34   13.6   315     27.0    842     0.00       0    49.7
 326   21:00   42.8    66   14.6   349     34.5    843     0.00       0    49.3
 326   22:00   40.5    60    6.0   336     17.9    845     0.00       0    48.8
 326   23:00   36.9    64    1.6   293      5.4    846     0.00       0    48.0

Return to Twin Springs, Nevada graphs page.


Western Regional Climate Center,wrcc@dri.edu